sensor_id;sensor_type;location;lat;lon;timestamp;P1;durP1;ratioP1;P2;durP2;ratioP2
11490;SDS011;5802;52.832;4.758;2022-12-18T00:01:14;6.97;;;5.82;;
11490;SDS011;5802;52.832;4.758;2022-12-18T00:03:43;8.10;;;5.43;;
11490;SDS011;5802;52.832;4.758;2022-12-18T00:06:10;6.70;;;5.18;;
11490;SDS011;5802;52.832;4.758;2022-12-18T00:08:38;7.65;;;5.30;;
11490;SDS011;5802;52.832;4.758;2022-12-18T00:11:06;6.63;;;5.05;;
11490;SDS011;5802;52.832;4.758;2022-12-18T00:13:33;7.07;;;5.18;;
11490;SDS011;5802;52.832;4.758;2022-12-18T00:16:01;6.10;;;4.95;;
11490;SDS011;5802;52.832;4.758;2022-12-18T00:18:29;5.78;;;5.00;;
11490;SDS011;5802;52.832;4.758;2022-12-18T00:20:58;6.80;;;4.97;;
11490;SDS011;5802;52.832;4.758;2022-12-18T00:23:25;7.32;;;5.63;;
11490;SDS011;5802;52.832;4.758;2022-12-18T00:25:52;6.40;;;5.07;;
11490;SDS011;5802;52.832;4.758;2022-12-18T00:28:19;7.35;;;5.55;;
11490;SDS011;5802;52.832;4.758;2022-12-18T00:30:46;7.05;;;5.28;;
11490;SDS011;5802;52.832;4.758;2022-12-18T00:33:16;6.95;;;5.40;;
11490;SDS011;5802;52.832;4.758;2022-12-18T00:35:44;5.95;;;5.00;;
11490;SDS011;5802;52.832;4.758;2022-12-18T00:38:10;7.47;;;5.65;;
11490;SDS011;5802;52.832;4.758;2022-12-18T00:40:38;5.65;;;4.90;;
11490;SDS011;5802;52.832;4.758;2022-12-18T00:43:04;6.22;;;5.32;;
11490;SDS011;5802;52.832;4.758;2022-12-18T00:45:30;6.88;;;5.13;;
11490;SDS011;5802;52.832;4.758;2022-12-18T00:47:57;6.72;;;5.38;;
11490;SDS011;5802;52.832;4.758;2022-12-18T00:50:24;7.07;;;4.90;;
11490;SDS011;5802;52.832;4.758;2022-12-18T00:52:52;6.80;;;5.38;;
11490;SDS011;5802;52.832;4.758;2022-12-18T00:55:19;6.55;;;5.28;;
11490;SDS011;5802;52.832;4.758;2022-12-18T00:57:46;6.95;;;5.00;;
11490;SDS011;5802;52.832;4.758;2022-12-18T01:00:13;8.90;;;5.55;;
11490;SDS011;5802;52.832;4.758;2022-12-18T01:02:41;8.45;;;5.72;;
11490;SDS011;5802;52.832;4.758;2022-12-18T01:05:08;6.53;;;5.28;;
11490;SDS011;5802;52.832;4.758;2022-12-18T01:07:36;6.90;;;5.75;;
11490;SDS011;5802;52.832;4.758;2022-12-18T01:10:05;6.05;;;5.07;;
11490;SDS011;5802;52.832;4.758;2022-12-18T01:12:33;7.85;;;5.40;;
11490;SDS011;5802;52.832;4.758;2022-12-18T01:15:00;7.80;;;6.05;;
11490;SDS011;5802;52.832;4.758;2022-12-18T01:17:26;6.57;;;5.35;;
11490;SDS011;5802;52.832;4.758;2022-12-18T01:19:53;6.40;;;5.28;;
11490;SDS011;5802;52.832;4.758;2022-12-18T01:22:21;7.60;;;5.25;;
11490;SDS011;5802;52.832;4.758;2022-12-18T01:24:48;6.13;;;5.03;;
11490;SDS011;5802;52.832;4.758;2022-12-18T01:27:16;7.20;;;5.18;;
11490;SDS011;5802;52.832;4.758;2022-12-18T01:29:42;6.55;;;5.32;;
11490;SDS011;5802;52.832;4.758;2022-12-18T01:32:09;10.45;;;5.45;;
11490;SDS011;5802;52.832;4.758;2022-12-18T01:34:36;6.22;;;5.03;;
11490;SDS011;5802;52.832;4.758;2022-12-18T01:37:03;6.72;;;5.35;;
11490;SDS011;5802;52.832;4.758;2022-12-18T01:39:29;7.50;;;5.80;;
11490;SDS011;5802;52.832;4.758;2022-12-18T01:41:57;7.57;;;5.70;;
11490;SDS011;5802;52.832;4.758;2022-12-18T01:44:51;6.03;;;4.82;;
11490;SDS011;5802;52.832;4.758;2022-12-18T01:47:22;7.22;;;5.70;;
11490;SDS011;5802;52.832;4.758;2022-12-18T01:49:50;7.22;;;5.45;;
11490;SDS011;5802;52.832;4.758;2022-12-18T01:52:18;7.35;;;5.63;;
11490;SDS011;5802;52.832;4.758;2022-12-18T01:54:46;9.90;;;6.07;;
11490;SDS011;5802;52.832;4.758;2022-12-18T01:57:13;8.02;;;5.43;;
11490;SDS011;5802;52.832;4.758;2022-12-18T01:59:40;6.80;;;5.70;;
11490;SDS011;5802;52.832;4.758;2022-12-18T02:02:10;7.13;;;5.32;;
11490;SDS011;5802;52.832;4.758;2022-12-18T02:04:37;6.68;;;5.40;;
11490;SDS011;5802;52.832;4.758;2022-12-18T02:07:05;6.35;;;4.88;;
11490;SDS011;5802;52.832;4.758;2022-12-18T02:09:40;6.90;;;5.32;;
11490;SDS011;5802;52.832;4.758;2022-12-18T02:12:13;7.47;;;5.45;;
11490;SDS011;5802;52.832;4.758;2022-12-18T02:14:43;7.35;;;5.53;;
11490;SDS011;5802;52.832;4.758;2022-12-18T02:17:16;7.88;;;5.55;;
11490;SDS011;5802;52.832;4.758;2022-12-18T02:19:48;7.30;;;5.13;;
11490;SDS011;5802;52.832;4.758;2022-12-18T02:22:29;6.25;;;5.30;;
11490;SDS011;5802;52.832;4.758;2022-12-18T02:25:12;5.65;;;5.05;;
11490;SDS011;5802;52.832;4.758;2022-12-18T02:27:49;7.25;;;5.38;;
11490;SDS011;5802;52.832;4.758;2022-12-18T02:30:18;7.18;;;5.30;;
11490;SDS011;5802;52.832;4.758;2022-12-18T02:32:49;7.72;;;5.40;;
11490;SDS011;5802;52.832;4.758;2022-12-18T02:35:21;6.82;;;5.30;;
11490;SDS011;5802;52.832;4.758;2022-12-18T02:37:50;7.50;;;5.68;;
11490;SDS011;5802;52.832;4.758;2022-12-18T02:40:19;8.48;;;5.57;;
11490;SDS011;5802;52.832;4.758;2022-12-18T02:42:49;9.48;;;5.80;;
11490;SDS011;5802;52.832;4.758;2022-12-18T02:45:16;7.70;;;5.97;;
11490;SDS011;5802;52.832;4.758;2022-12-18T02:47:44;6.82;;;5.40;;
11490;SDS011;5802;52.832;4.758;2022-12-18T02:50:16;7.03;;;5.57;;
11490;SDS011;5802;52.832;4.758;2022-12-18T02:52:49;6.53;;;5.57;;
11490;SDS011;5802;52.832;4.758;2022-12-18T02:55:24;8.10;;;5.20;;
11490;SDS011;5802;52.832;4.758;2022-12-18T02:58:01;7.65;;;5.70;;
11490;SDS011;5802;52.832;4.758;2022-12-18T03:00:31;7.43;;;5.57;;
11490;SDS011;5802;52.832;4.758;2022-12-18T03:03:05;6.82;;;5.32;;
11490;SDS011;5802;52.832;4.758;2022-12-18T03:05:36;7.32;;;5.43;;
11490;SDS011;5802;52.832;4.758;2022-12-18T03:08:07;7.93;;;5.55;;
11490;SDS011;5802;52.832;4.758;2022-12-18T03:10:39;6.57;;;5.03;;
11490;SDS011;5802;52.832;4.758;2022-12-18T03:13:13;9.00;;;5.90;;
11490;SDS011;5802;52.832;4.758;2022-12-18T03:15:45;6.93;;;5.50;;
11490;SDS011;5802;52.832;4.758;2022-12-18T03:18:16;9.88;;;5.90;;
11490;SDS011;5802;52.832;4.758;2022-12-18T03:20:46;6.05;;;5.45;;
11490;SDS011;5802;52.832;4.758;2022-12-18T03:23:15;8.18;;;5.75;;
11490;SDS011;5802;52.832;4.758;2022-12-18T03:25:46;7.80;;;5.82;;
11490;SDS011;5802;52.832;4.758;2022-12-18T03:28:16;6.82;;;5.40;;
11490;SDS011;5802;52.832;4.758;2022-12-18T03:30:47;6.63;;;5.93;;
11490;SDS011;5802;52.832;4.758;2022-12-18T03:33:19;6.97;;;5.30;;
11490;SDS011;5802;52.832;4.758;2022-12-18T03:35:50;6.80;;;5.53;;
11490;SDS011;5802;52.832;4.758;2022-12-18T03:38:17;7.30;;;5.68;;
11490;SDS011;5802;52.832;4.758;2022-12-18T03:40:45;7.43;;;5.82;;
11490;SDS011;5802;52.832;4.758;2022-12-18T03:43:24;6.97;;;5.20;;
11490;SDS011;5802;52.832;4.758;2022-12-18T03:46:02;7.03;;;5.10;;
11490;SDS011;5802;52.832;4.758;2022-12-18T03:48:34;8.05;;;5.60;;
11490;SDS011;5802;52.832;4.758;2022-12-18T03:51:08;6.85;;;5.40;;
11490;SDS011;5802;52.832;4.758;2022-12-18T03:53:39;6.82;;;5.57;;
11490;SDS011;5802;52.832;4.758;2022-12-18T03:56:10;8.10;;;5.82;;
11490;SDS011;5802;52.832;4.758;2022-12-18T03:58:40;7.53;;;5.78;;
11490;SDS011;5802;52.832;4.758;2022-12-18T04:01:09;7.03;;;5.45;;
11490;SDS011;5802;52.832;4.758;2022-12-18T04:03:39;6.03;;;4.97;;
11490;SDS011;5802;52.832;4.758;2022-12-18T04:06:08;7.78;;;5.97;;
11490;SDS011;5802;52.832;4.758;2022-12-18T04:08:36;7.82;;;6.05;;
11490;SDS011;5802;52.832;4.758;2022-12-18T04:11:04;6.90;;;5.25;;
11490;SDS011;5802;52.832;4.758;2022-12-18T04:13:32;7.63;;;5.72;;
11490;SDS011;5802;52.832;4.758;2022-12-18T04:16:02;6.60;;;5.55;;
11490;SDS011;5802;52.832;4.758;2022-12-18T04:18:29;7.32;;;5.47;;
11490;SDS011;5802;52.832;4.758;2022-12-18T04:20:56;7.15;;;5.82;;
11490;SDS011;5802;52.832;4.758;2022-12-18T04:23:23;7.70;;;5.60;;
11490;SDS011;5802;52.832;4.758;2022-12-18T04:25:49;6.82;;;5.70;;
11490;SDS011;5802;52.832;4.758;2022-12-18T04:28:16;7.25;;;5.50;;
11490;SDS011;5802;52.832;4.758;2022-12-18T04:30:43;6.82;;;5.43;;
11490;SDS011;5802;52.832;4.758;2022-12-18T04:33:11;6.60;;;5.22;;
11490;SDS011;5802;52.832;4.758;2022-12-18T04:35:38;6.32;;;4.88;;
11490;SDS011;5802;52.832;4.758;2022-12-18T04:38:06;6.28;;;5.20;;
11490;SDS011;5802;52.832;4.758;2022-12-18T04:40:34;7.57;;;5.38;;
11490;SDS011;5802;52.832;4.758;2022-12-18T04:43:01;6.57;;;5.25;;
11490;SDS011;5802;52.832;4.758;2022-12-18T04:45:28;7.78;;;5.82;;
11490;SDS011;5802;52.832;4.758;2022-12-18T04:47:56;7.65;;;5.63;;
11490;SDS011;5802;52.832;4.758;2022-12-18T04:50:24;6.43;;;5.38;;
11490;SDS011;5802;52.832;4.758;2022-12-18T04:52:51;7.07;;;5.40;;
11490;SDS011;5802;52.832;4.758;2022-12-18T04:55:18;7.10;;;5.65;;
11490;SDS011;5802;52.832;4.758;2022-12-18T04:57:45;9.50;;;5.45;;
11490;SDS011;5802;52.832;4.758;2022-12-18T05:00:12;7.40;;;5.95;;
11490;SDS011;5802;52.832;4.758;2022-12-18T05:02:39;7.40;;;5.32;;
11490;SDS011;5802;52.832;4.758;2022-12-18T05:05:06;6.57;;;5.40;;
11490;SDS011;5802;52.832;4.758;2022-12-18T05:07:35;7.57;;;5.70;;
11490;SDS011;5802;52.832;4.758;2022-12-18T05:10:02;6.95;;;5.15;;
11490;SDS011;5802;52.832;4.758;2022-12-18T05:12:32;6.85;;;5.18;;
11490;SDS011;5802;52.832;4.758;2022-12-18T05:15:19;7.22;;;5.60;;
11490;SDS011;5802;52.832;4.758;2022-12-18T05:17:46;6.22;;;4.65;;
11490;SDS011;5802;52.832;4.758;2022-12-18T05:20:12;6.55;;;5.20;;
11490;SDS011;5802;52.832;4.758;2022-12-18T05:22:40;6.47;;;4.97;;
11490;SDS011;5802;52.832;4.758;2022-12-18T05:25:07;7.03;;;5.35;;
11490;SDS011;5802;52.832;4.758;2022-12-18T05:27:34;5.50;;;4.88;;
11490;SDS011;5802;52.832;4.758;2022-12-18T05:30:01;7.82;;;5.00;;
11490;SDS011;5802;52.832;4.758;2022-12-18T05:32:28;7.43;;;4.80;;
11490;SDS011;5802;52.832;4.758;2022-12-18T05:34:54;6.13;;;4.93;;
11490;SDS011;5802;52.832;4.758;2022-12-18T05:37:22;6.38;;;4.82;;
11490;SDS011;5802;52.832;4.758;2022-12-18T05:39:50;6.30;;;4.88;;
11490;SDS011;5802;52.832;4.758;2022-12-18T05:42:16;5.57;;;4.45;;
11490;SDS011;5802;52.832;4.758;2022-12-18T05:44:43;5.93;;;4.85;;
11490;SDS011;5802;52.832;4.758;2022-12-18T05:47:10;7.05;;;4.88;;
11490;SDS011;5802;52.832;4.758;2022-12-18T05:49:37;6.30;;;4.72;;
11490;SDS011;5802;52.832;4.758;2022-12-18T05:52:03;5.07;;;4.25;;
11490;SDS011;5802;52.832;4.758;2022-12-18T05:54:30;5.82;;;4.78;;
11490;SDS011;5802;52.832;4.758;2022-12-18T05:56:58;6.55;;;4.60;;
11490;SDS011;5802;52.832;4.758;2022-12-18T05:59:25;5.15;;;4.40;;
11490;SDS011;5802;52.832;4.758;2022-12-18T06:01:51;7.13;;;4.90;;
11490;SDS011;5802;52.832;4.758;2022-12-18T06:04:18;4.95;;;4.15;;
11490;SDS011;5802;52.832;4.758;2022-12-18T06:06:45;6.47;;;4.63;;
11490;SDS011;5802;52.832;4.758;2022-12-18T06:09:11;5.18;;;4.35;;
11490;SDS011;5802;52.832;4.758;2022-12-18T06:11:38;5.70;;;4.63;;
11490;SDS011;5802;52.832;4.758;2022-12-18T06:14:06;5.60;;;4.65;;
11490;SDS011;5802;52.832;4.758;2022-12-18T06:16:35;4.45;;;4.03;;
11490;SDS011;5802;52.832;4.758;2022-12-18T06:19:03;6.05;;;4.88;;
11490;SDS011;5802;52.832;4.758;2022-12-18T06:21:31;5.10;;;4.60;;
11490;SDS011;5802;52.832;4.758;2022-12-18T06:23:59;4.88;;;4.28;;
11490;SDS011;5802;52.832;4.758;2022-12-18T06:26:26;4.82;;;4.30;;
11490;SDS011;5802;52.832;4.758;2022-12-18T06:28:53;4.97;;;4.30;;
11490;SDS011;5802;52.832;4.758;2022-12-18T06:31:20;5.15;;;4.25;;
11490;SDS011;5802;52.832;4.758;2022-12-18T06:33:47;5.43;;;4.50;;
11490;SDS011;5802;52.832;4.758;2022-12-18T06:36:14;5.70;;;4.47;;
11490;SDS011;5802;52.832;4.758;2022-12-18T06:38:41;5.28;;;4.25;;
11490;SDS011;5802;52.832;4.758;2022-12-18T06:41:09;4.65;;;3.88;;
11490;SDS011;5802;52.832;4.758;2022-12-18T06:43:38;4.40;;;3.90;;
11490;SDS011;5802;52.832;4.758;2022-12-18T06:46:05;4.78;;;3.95;;
11490;SDS011;5802;52.832;4.758;2022-12-18T06:48:33;5.72;;;4.20;;
11490;SDS011;5802;52.832;4.758;2022-12-18T06:51:00;5.07;;;4.25;;
11490;SDS011;5802;52.832;4.758;2022-12-18T06:53:27;5.50;;;4.18;;
11490;SDS011;5802;52.832;4.758;2022-12-18T06:55:59;4.75;;;3.97;;
11490;SDS011;5802;52.832;4.758;2022-12-18T06:58:26;5.32;;;4.28;;
11490;SDS011;5802;52.832;4.758;2022-12-18T07:00:53;5.40;;;4.25;;
11490;SDS011;5802;52.832;4.758;2022-12-18T07:03:20;5.18;;;4.00;;
11490;SDS011;5802;52.832;4.758;2022-12-18T07:05:48;5.68;;;4.05;;
11490;SDS011;5802;52.832;4.758;2022-12-18T07:08:14;5.47;;;4.50;;
11490;SDS011;5802;52.832;4.758;2022-12-18T07:10:41;5.00;;;4.38;;
11490;SDS011;5802;52.832;4.758;2022-12-18T07:13:08;5.20;;;4.55;;
11490;SDS011;5802;52.832;4.758;2022-12-18T07:15:35;6.70;;;4.03;;
11490;SDS011;5802;52.832;4.758;2022-12-18T07:18:02;5.32;;;4.30;;
11490;SDS011;5802;52.832;4.758;2022-12-18T07:20:29;5.25;;;4.10;;
11490;SDS011;5802;52.832;4.758;2022-12-18T07:22:57;6.72;;;4.40;;
11490;SDS011;5802;52.832;4.758;2022-12-18T07:25:24;4.93;;;4.07;;
11490;SDS011;5802;52.832;4.758;2022-12-18T07:27:50;5.38;;;4.43;;
11490;SDS011;5802;52.832;4.758;2022-12-18T07:30:17;5.60;;;4.38;;
11490;SDS011;5802;52.832;4.758;2022-12-18T07:32:44;5.20;;;3.97;;
11490;SDS011;5802;52.832;4.758;2022-12-18T07:35:10;4.82;;;4.10;;
11490;SDS011;5802;52.832;4.758;2022-12-18T07:37:37;5.10;;;4.10;;
11490;SDS011;5802;52.832;4.758;2022-12-18T07:40:06;4.80;;;4.18;;
11490;SDS011;5802;52.832;4.758;2022-12-18T07:42:34;5.45;;;4.25;;
11490;SDS011;5802;52.832;4.758;2022-12-18T07:45:02;5.20;;;4.22;;
11490;SDS011;5802;52.832;4.758;2022-12-18T07:47:29;5.15;;;3.83;;
11490;SDS011;5802;52.832;4.758;2022-12-18T07:49:56;5.53;;;4.40;;
11490;SDS011;5802;52.832;4.758;2022-12-18T07:52:23;6.55;;;4.80;;
11490;SDS011;5802;52.832;4.758;2022-12-18T07:54:49;4.90;;;4.38;;
11490;SDS011;5802;52.832;4.758;2022-12-18T07:57:17;5.40;;;4.07;;
11490;SDS011;5802;52.832;4.758;2022-12-18T07:59:44;5.43;;;4.53;;
11490;SDS011;5802;52.832;4.758;2022-12-18T08:02:11;5.38;;;4.03;;
11490;SDS011;5802;52.832;4.758;2022-12-18T08:04:37;5.53;;;4.45;;
11490;SDS011;5802;52.832;4.758;2022-12-18T08:07:04;5.25;;;4.55;;
11490;SDS011;5802;52.832;4.758;2022-12-18T08:09:31;5.53;;;4.57;;
11490;SDS011;5802;52.832;4.758;2022-12-18T08:11:57;5.38;;;4.63;;
11490;SDS011;5802;52.832;4.758;2022-12-18T08:14:25;5.93;;;5.07;;
11490;SDS011;5802;52.832;4.758;2022-12-18T08:16:52;6.72;;;4.88;;
11490;SDS011;5802;52.832;4.758;2022-12-18T08:19:19;6.70;;;5.15;;
11490;SDS011;5802;52.832;4.758;2022-12-18T08:21:45;8.40;;;5.40;;
11490;SDS011;5802;52.832;4.758;2022-12-18T08:24:12;6.47;;;5.25;;
11490;SDS011;5802;52.832;4.758;2022-12-18T08:26:38;7.15;;;5.15;;
11490;SDS011;5802;52.832;4.758;2022-12-18T08:29:05;7.43;;;4.70;;
11490;SDS011;5802;52.832;4.758;2022-12-18T08:31:33;7.32;;;5.43;;
11490;SDS011;5802;52.832;4.758;2022-12-18T08:34:00;6.53;;;5.28;;
11490;SDS011;5802;52.832;4.758;2022-12-18T08:36:26;6.60;;;5.13;;
11490;SDS011;5802;52.832;4.758;2022-12-18T08:38:53;6.93;;;5.40;;
11490;SDS011;5802;52.832;4.758;2022-12-18T08:41:20;8.65;;;5.03;;
11490;SDS011;5802;52.832;4.758;2022-12-18T08:43:47;9.02;;;5.40;;
11490;SDS011;5802;52.832;4.758;2022-12-18T08:46:34;8.38;;;5.20;;
11490;SDS011;5802;52.832;4.758;2022-12-18T08:49:02;9.20;;;5.63;;
11490;SDS011;5802;52.832;4.758;2022-12-18T08:51:29;10.60;;;5.47;;
11490;SDS011;5802;52.832;4.758;2022-12-18T08:53:56;10.90;;;5.35;;
11490;SDS011;5802;52.832;4.758;2022-12-18T08:56:23;7.35;;;5.53;;
11490;SDS011;5802;52.832;4.758;2022-12-18T08:58:51;7.15;;;5.60;;
11490;SDS011;5802;52.832;4.758;2022-12-18T09:01:18;8.38;;;4.60;;
11490;SDS011;5802;52.832;4.758;2022-12-18T09:03:46;7.13;;;5.55;;
11490;SDS011;5802;52.832;4.758;2022-12-18T09:06:13;8.82;;;5.60;;
11490;SDS011;5802;52.832;4.758;2022-12-18T09:08:41;8.20;;;5.25;;
11490;SDS011;5802;52.832;4.758;2022-12-18T09:11:11;6.93;;;5.53;;
11490;SDS011;5802;52.832;4.758;2022-12-18T09:13:39;6.53;;;5.03;;
11490;SDS011;5802;52.832;4.758;2022-12-18T09:16:06;6.50;;;5.10;;
11490;SDS011;5802;52.832;4.758;2022-12-18T09:18:33;6.13;;;4.85;;
11490;SDS011;5802;52.832;4.758;2022-12-18T09:21:06;6.45;;;5.30;;
11490;SDS011;5802;52.832;4.758;2022-12-18T09:23:34;6.28;;;5.10;;
11490;SDS011;5802;52.832;4.758;2022-12-18T09:26:00;7.10;;;4.80;;
11490;SDS011;5802;52.832;4.758;2022-12-18T09:28:27;6.45;;;4.55;;
11490;SDS011;5802;52.832;4.758;2022-12-18T09:30:54;6.93;;;4.80;;
11490;SDS011;5802;52.832;4.758;2022-12-18T09:33:21;5.57;;;4.47;;
11490;SDS011;5802;52.832;4.758;2022-12-18T09:35:47;5.85;;;5.05;;
11490;SDS011;5802;52.832;4.758;2022-12-18T09:38:16;6.07;;;4.63;;
11490;SDS011;5802;52.832;4.758;2022-12-18T09:40:45;6.30;;;4.20;;
11490;SDS011;5802;52.832;4.758;2022-12-18T09:43:15;5.75;;;4.68;;
11490;SDS011;5802;52.832;4.758;2022-12-18T09:45:45;5.38;;;4.63;;
11490;SDS011;5802;52.832;4.758;2022-12-18T09:48:15;6.78;;;4.47;;
11490;SDS011;5802;52.832;4.758;2022-12-18T09:50:46;6.15;;;4.40;;
11490;SDS011;5802;52.832;4.758;2022-12-18T09:53:17;6.85;;;4.70;;
11490;SDS011;5802;52.832;4.758;2022-12-18T09:55:47;5.28;;;3.95;;
11490;SDS011;5802;52.832;4.758;2022-12-18T09:58:16;4.28;;;3.70;;
11490;SDS011;5802;52.832;4.758;2022-12-18T10:00:51;5.32;;;4.10;;
11490;SDS011;5802;52.832;4.758;2022-12-18T10:03:18;6.72;;;3.88;;
11490;SDS011;5802;52.832;4.758;2022-12-18T10:05:47;4.65;;;4.00;;
11490;SDS011;5802;52.832;4.758;2022-12-18T10:08:27;6.32;;;4.18;;
11490;SDS011;5802;52.832;4.758;2022-12-18T10:11:03;5.35;;;4.28;;
11490;SDS011;5802;52.832;4.758;2022-12-18T10:13:49;5.90;;;3.97;;
11490;SDS011;5802;52.832;4.758;2022-12-18T10:16:22;6.82;;;3.70;;
11490;SDS011;5802;52.832;4.758;2022-12-18T10:18:57;4.70;;;3.58;;
11490;SDS011;5802;52.832;4.758;2022-12-18T10:21:31;5.03;;;3.53;;
11490;SDS011;5802;52.832;4.758;2022-12-18T10:24:05;6.10;;;3.70;;
11490;SDS011;5802;52.832;4.758;2022-12-18T10:26:40;7.13;;;3.22;;
11490;SDS011;5802;52.832;4.758;2022-12-18T10:29:08;4.88;;;3.40;;
11490;SDS011;5802;52.832;4.758;2022-12-18T10:31:40;5.47;;;3.70;;
11490;SDS011;5802;52.832;4.758;2022-12-18T10:34:09;7.45;;;3.83;;
11490;SDS011;5802;52.832;4.758;2022-12-18T10:36:36;4.65;;;3.65;;
11490;SDS011;5802;52.832;4.758;2022-12-18T10:39:15;6.05;;;3.90;;
11490;SDS011;5802;52.832;4.758;2022-12-18T10:41:43;7.78;;;4.28;;
11490;SDS011;5802;52.832;4.758;2022-12-18T10:44:11;11.65;;;5.03;;
11490;SDS011;5802;52.832;4.758;2022-12-18T10:46:42;6.45;;;4.63;;
11490;SDS011;5802;52.832;4.758;2022-12-18T10:49:18;7.07;;;4.55;;
11490;SDS011;5802;52.832;4.758;2022-12-18T10:51:47;11.90;;;5.05;;
11490;SDS011;5802;52.832;4.758;2022-12-18T10:54:15;8.57;;;4.85;;
11490;SDS011;5802;52.832;4.758;2022-12-18T10:56:44;7.47;;;4.75;;
11490;SDS011;5802;52.832;4.758;2022-12-18T10:59:12;14.35;;;4.68;;
11490;SDS011;5802;52.832;4.758;2022-12-18T11:01:46;9.50;;;5.07;;
11490;SDS011;5802;52.832;4.758;2022-12-18T11:04:19;8.23;;;4.72;;
11490;SDS011;5802;52.832;4.758;2022-12-18T11:06:55;6.90;;;4.43;;
11490;SDS011;5802;52.832;4.758;2022-12-18T11:09:26;8.20;;;4.07;;
11490;SDS011;5802;52.832;4.758;2022-12-18T11:11:54;7.18;;;3.92;;
11490;SDS011;5802;52.832;4.758;2022-12-18T11:14:24;5.80;;;4.38;;
11490;SDS011;5802;52.832;4.758;2022-12-18T11:16:53;9.45;;;4.47;;
11490;SDS011;5802;52.832;4.758;2022-12-18T11:19:26;5.45;;;3.45;;
11490;SDS011;5802;52.832;4.758;2022-12-18T11:21:58;6.57;;;3.67;;
11490;SDS011;5802;52.832;4.758;2022-12-18T11:24:28;6.90;;;3.85;;
11490;SDS011;5802;52.832;4.758;2022-12-18T11:26:57;7.60;;;3.75;;
11490;SDS011;5802;52.832;4.758;2022-12-18T11:29:28;6.30;;;4.05;;
11490;SDS011;5802;52.832;4.758;2022-12-18T11:34:54;4.32;;;3.35;;
11490;SDS011;5802;52.832;4.758;2022-12-18T11:37:29;4.35;;;3.20;;
11490;SDS011;5802;52.832;4.758;2022-12-18T11:39:58;4.65;;;3.50;;
11490;SDS011;5802;52.832;4.758;2022-12-18T11:42:30;5.15;;;3.17;;
11490;SDS011;5802;52.832;4.758;2022-12-18T11:45:07;4.28;;;3.10;;
11490;SDS011;5802;52.832;4.758;2022-12-18T11:47:48;5.30;;;3.78;;
11490;SDS011;5802;52.832;4.758;2022-12-18T11:50:21;5.15;;;3.20;;
11490;SDS011;5802;52.832;4.758;2022-12-18T11:52:50;5.78;;;3.40;;
11490;SDS011;5802;52.832;4.758;2022-12-18T11:55:20;3.65;;;3.20;;
11490;SDS011;5802;52.832;4.758;2022-12-18T11:57:55;4.45;;;3.00;;
11490;SDS011;5802;52.832;4.758;2022-12-18T12:00:28;3.85;;;3.05;;
11490;SDS011;5802;52.832;4.758;2022-12-18T12:03:14;4.57;;;2.97;;
11490;SDS011;5802;52.832;4.758;2022-12-18T12:06:07;3.92;;;3.03;;
11490;SDS011;5802;52.832;4.758;2022-12-18T12:08:47;4.43;;;2.97;;
11490;SDS011;5802;52.832;4.758;2022-12-18T12:11:29;4.35;;;3.30;;
11490;SDS011;5802;52.832;4.758;2022-12-18T12:14:08;9.20;;;2.88;;
11490;SDS011;5802;52.832;4.758;2022-12-18T12:16:48;4.43;;;2.97;;
11490;SDS011;5802;52.832;4.758;2022-12-18T12:19:22;4.35;;;2.92;;
11490;SDS011;5802;52.832;4.758;2022-12-18T12:22:03;3.85;;;2.35;;
11490;SDS011;5802;52.832;4.758;2022-12-18T12:24:40;4.57;;;2.80;;
11490;SDS011;5802;52.832;4.758;2022-12-18T12:27:20;4.65;;;2.80;;
11490;SDS011;5802;52.832;4.758;2022-12-18T12:29:58;4.60;;;3.00;;
11490;SDS011;5802;52.832;4.758;2022-12-18T12:32:32;4.00;;;2.95;;
11490;SDS011;5802;52.832;4.758;2022-12-18T12:35:14;4.25;;;3.17;;
11490;SDS011;5802;52.832;4.758;2022-12-18T12:37:53;4.70;;;2.90;;
11490;SDS011;5802;52.832;4.758;2022-12-18T12:40:29;4.60;;;3.13;;
11490;SDS011;5802;52.832;4.758;2022-12-18T12:43:12;5.85;;;2.80;;
11490;SDS011;5802;52.832;4.758;2022-12-18T12:45:51;5.45;;;2.90;;
11490;SDS011;5802;52.832;4.758;2022-12-18T12:48:23;4.80;;;3.13;;
11490;SDS011;5802;52.832;4.758;2022-12-18T12:51:00;7.50;;;3.35;;
11490;SDS011;5802;52.832;4.758;2022-12-18T12:53:29;7.88;;;3.13;;
11490;SDS011;5802;52.832;4.758;2022-12-18T12:55:58;4.93;;;2.92;;
11490;SDS011;5802;52.832;4.758;2022-12-18T12:58:28;4.35;;;2.88;;
11490;SDS011;5802;52.832;4.758;2022-12-18T13:01:02;7.95;;;3.17;;
11490;SDS011;5802;52.832;4.758;2022-12-18T13:03:43;4.85;;;3.20;;
11490;SDS011;5802;52.832;4.758;2022-12-18T13:06:19;5.40;;;2.83;;
11490;SDS011;5802;52.832;4.758;2022-12-18T13:08:58;5.47;;;3.33;;
11490;SDS011;5802;52.832;4.758;2022-12-18T13:11:28;5.10;;;3.10;;
11490;SDS011;5802;52.832;4.758;2022-12-18T13:14:26;6.20;;;3.15;;
11490;SDS011;5802;52.832;4.758;2022-12-18T13:17:14;4.72;;;2.83;;
11490;SDS011;5802;52.832;4.758;2022-12-18T13:19:42;4.63;;;3.60;;
11490;SDS011;5802;52.832;4.758;2022-12-18T13:22:19;5.53;;;3.00;;
11490;SDS011;5802;52.832;4.758;2022-12-18T13:24:48;6.32;;;2.78;;
11490;SDS011;5802;52.832;4.758;2022-12-18T13:36:13;5.85;;;3.40;;
11490;SDS011;5802;52.832;4.758;2022-12-18T13:45:35;6.30;;;3.50;;
11490;SDS011;5802;52.832;4.758;2022-12-18T13:48:10;6.78;;;3.13;;
11490;SDS011;5802;52.832;4.758;2022-12-18T13:50:41;5.70;;;3.10;;
11490;SDS011;5802;52.832;4.758;2022-12-18T13:53:11;3.60;;;2.95;;
11490;SDS011;5802;52.832;4.758;2022-12-18T13:55:46;7.60;;;3.78;;
11490;SDS011;5802;52.832;4.758;2022-12-18T13:58:12;4.57;;;2.97;;
11490;SDS011;5802;52.832;4.758;2022-12-18T14:00:41;10.48;;;3.50;;
11490;SDS011;5802;52.832;4.758;2022-12-18T14:03:16;4.63;;;2.90;;
11490;SDS011;5802;52.832;4.758;2022-12-18T14:05:45;4.07;;;3.10;;
11490;SDS011;5802;52.832;4.758;2022-12-18T14:08:18;4.88;;;2.90;;
11490;SDS011;5802;52.832;4.758;2022-12-18T14:10:45;3.67;;;2.88;;
11490;SDS011;5802;52.832;4.758;2022-12-18T14:13:15;5.20;;;3.10;;
11490;SDS011;5802;52.832;4.758;2022-12-18T14:15:45;4.28;;;3.08;;
11490;SDS011;5802;52.832;4.758;2022-12-18T14:18:17;4.55;;;2.42;;
11490;SDS011;5802;52.832;4.758;2022-12-18T14:20:48;5.22;;;2.97;;
11490;SDS011;5802;52.832;4.758;2022-12-18T14:23:29;4.22;;;3.00;;
11490;SDS011;5802;52.832;4.758;2022-12-18T14:25:58;3.25;;;2.47;;
11490;SDS011;5802;52.832;4.758;2022-12-18T14:28:25;4.78;;;2.80;;
11490;SDS011;5802;52.832;4.758;2022-12-18T14:30:52;5.70;;;2.97;;
11490;SDS011;5802;52.832;4.758;2022-12-18T14:33:23;5.60;;;2.60;;
11490;SDS011;5802;52.832;4.758;2022-12-18T14:35:57;9.32;;;2.97;;
11490;SDS011;5802;52.832;4.758;2022-12-18T14:38:27;8.45;;;2.92;;
11490;SDS011;5802;52.832;4.758;2022-12-18T14:40:56;7.22;;;2.60;;
11490;SDS011;5802;52.832;4.758;2022-12-18T14:43:25;7.30;;;3.05;;
11490;SDS011;5802;52.832;4.758;2022-12-18T14:45:53;9.38;;;2.80;;
11490;SDS011;5802;52.832;4.758;2022-12-18T14:48:24;8.38;;;2.90;;
11490;SDS011;5802;52.832;4.758;2022-12-18T14:51:01;11.85;;;3.20;;
11490;SDS011;5802;52.832;4.758;2022-12-18T14:53:32;6.43;;;3.00;;
11490;SDS011;5802;52.832;4.758;2022-12-18T14:56:01;7.75;;;2.95;;
11490;SDS011;5802;52.832;4.758;2022-12-18T14:58:29;12.18;;;2.80;;
11490;SDS011;5802;52.832;4.758;2022-12-18T15:00:56;6.07;;;2.25;;
11490;SDS011;5802;52.832;4.758;2022-12-18T15:03:25;7.45;;;2.80;;
11490;SDS011;5802;52.832;4.758;2022-12-18T15:05:52;6.40;;;3.40;;
11490;SDS011;5802;52.832;4.758;2022-12-18T15:08:29;3.70;;;2.88;;
11490;SDS011;5802;52.832;4.758;2022-12-18T15:10:57;5.47;;;2.40;;
11490;SDS011;5802;52.832;4.758;2022-12-18T15:13:24;4.70;;;2.58;;
11490;SDS011;5802;52.832;4.758;2022-12-18T15:15:51;6.30;;;2.65;;
11490;SDS011;5802;52.832;4.758;2022-12-18T15:18:19;5.10;;;2.80;;
11490;SDS011;5802;52.832;4.758;2022-12-18T15:20:51;4.50;;;2.80;;
11490;SDS011;5802;52.832;4.758;2022-12-18T15:23:20;6.03;;;2.58;;
11490;SDS011;5802;52.832;4.758;2022-12-18T15:25:49;4.75;;;2.70;;
11490;SDS011;5802;52.832;4.758;2022-12-18T15:28:22;8.95;;;2.75;;
11490;SDS011;5802;52.832;4.758;2022-12-18T15:31:01;6.13;;;3.03;;
11490;SDS011;5802;52.832;4.758;2022-12-18T15:33:31;5.28;;;2.53;;
11490;SDS011;5802;52.832;4.758;2022-12-18T15:36:01;5.45;;;2.60;;